createdAt,value
2022-11-09T00:00:49.676Z,90.14
2022-11-09T00:03:17.130Z,90.34
2022-11-09T00:05:44.247Z,88.46
2022-11-09T00:08:12.039Z,90.70
2022-11-09T00:10:39.275Z,90.75
2022-11-09T00:13:06.531Z,90.01
2022-11-09T00:15:33.477Z,89.59
2022-11-09T00:18:03.502Z,89.84
2022-11-09T00:20:30.674Z,89.89
2022-11-09T00:22:57.659Z,89.64
2022-11-09T00:25:24.553Z,90.29
2022-11-09T00:27:51.633Z,89.38
2022-11-09T00:30:18.622Z,88.93
2022-11-09T00:32:45.606Z,88.36
2022-11-09T00:35:12.515Z,88.08
2022-11-09T00:37:39.742Z,88.62
2022-11-09T00:40:07.370Z,89.10
2022-11-09T00:42:34.278Z,89.38
2022-11-09T00:45:01.244Z,90.24
2022-11-09T00:47:28.135Z,90.06
2022-11-09T00:49:55.650Z,90.47
2022-11-09T00:52:22.590Z,90.12
2022-11-09T00:54:49.612Z,90.48
2022-11-09T00:57:17.250Z,90.23
2022-11-09T00:59:44.201Z,90.45
2022-11-09T01:02:11.077Z,90.61
2022-11-09T01:04:38.002Z,90.90
2022-11-09T01:07:06.918Z,90.42
2022-11-09T01:09:34.258Z,90.80
2022-11-09T01:12:01.280Z,90.49
2022-11-09T01:14:28.324Z,90.97
2022-11-09T01:16:55.370Z,90.46
2022-11-09T01:19:22.344Z,90.90
2022-11-09T01:21:49.312Z,90.02
2022-11-09T01:24:16.225Z,89.88
2022-11-09T01:26:43.152Z,89.99
2022-11-09T01:29:10.136Z,89.39
2022-11-09T01:31:37.047Z,90.90
2022-11-09T01:34:04.031Z,90.60
2022-11-09T01:36:31.546Z,90.57
2022-11-09T01:38:58.528Z,90.23
2022-11-09T01:41:28.656Z,90.74
2022-11-09T01:44:08.650Z,91.04
2022-11-09T01:46:54.021Z,90.73
2022-11-09T01:49:41.243Z,90.64
2022-11-09T01:52:20.777Z,90.16
2022-11-09T01:54:51.842Z,89.79
2022-11-09T01:57:25.809Z,89.40
2022-11-09T01:59:57.614Z,89.32
2022-11-09T02:02:24.914Z,89.82
2022-11-09T02:04:58.505Z,89.68
2022-11-09T02:07:41.721Z,89.64
2022-11-09T02:11:00.406Z,89.34
2022-11-09T02:13:52.924Z,89.47
2022-11-09T02:16:41.571Z,89.62
2022-11-09T02:19:22.768Z,89.17
2022-11-09T02:22:15.000Z,88.88
2022-11-09T02:24:41.886Z,89.41
2022-11-09T02:27:09.238Z,89.61
2022-11-09T02:29:40.866Z,90.38
2022-11-09T02:32:12.922Z,90.37
2022-11-09T02:34:39.831Z,89.89
2022-11-09T02:37:06.899Z,89.75
2022-11-09T02:39:34.741Z,90.11
2022-11-09T02:42:20.940Z,90.74
2022-11-09T02:44:52.664Z,91.48
2022-11-09T02:47:19.592Z,92.08
2022-11-09T02:49:46.710Z,92.17
2022-11-09T02:52:13.764Z,91.80
2022-11-09T02:54:40.650Z,90.77
2022-11-09T02:57:07.574Z,89.20
2022-11-09T02:59:34.750Z,87.84
2022-11-09T03:02:01.825Z,86.66
2022-11-09T03:04:28.884Z,87.09
2022-11-09T03:06:55.873Z,87.31
2022-11-09T03:09:22.785Z,86.45
2022-11-09T03:11:50.766Z,87.63
2022-11-09T03:14:18.113Z,87.25
2022-11-09T03:16:50.170Z,87.55
2022-11-09T03:19:17.733Z,87.17
2022-11-09T03:21:44.816Z,86.75
2022-11-09T03:24:11.830Z,86.46
2022-11-09T03:26:38.772Z,86.60
2022-11-09T03:29:05.703Z,86.37
2022-11-09T03:31:32.617Z,87.29
2022-11-09T03:33:59.517Z,90.13
2022-11-09T03:36:26.403Z,90.24
2022-11-09T03:38:53.306Z,90.60
2022-11-09T03:41:20.190Z,90.81
2022-11-09T03:43:47.094Z,91.57
2022-11-09T03:46:13.956Z,90.23
2022-11-09T03:48:40.864Z,90.58
2022-11-09T03:51:07.736Z,89.72
2022-11-09T03:53:34.679Z,89.81
2022-11-09T03:56:01.589Z,88.78
2022-11-09T03:58:28.470Z,88.34
2022-11-09T04:00:55.396Z,87.15
2022-11-09T04:03:22.614Z,88.46
2022-11-09T04:05:49.679Z,88.14
2022-11-09T04:08:16.818Z,89.16
2022-11-09T04:10:43.751Z,89.94
2022-11-09T04:13:10.700Z,89.04
2022-11-09T04:15:37.652Z,87.97
2022-11-09T04:18:04.552Z,86.66
2022-11-09T04:20:32.594Z,86.98
2022-11-09T04:23:05.066Z,87.53
2022-11-09T04:25:35.568Z,89.38
2022-11-09T04:28:04.443Z,89.45
2022-11-09T04:30:33.553Z,90.47
2022-11-09T04:33:02.080Z,90.92
2022-11-09T04:35:30.372Z,92.29
2022-11-09T04:38:08.604Z,92.12
2022-11-09T04:40:36.543Z,92.31
2022-11-09T04:43:05.601Z,91.42
2022-11-09T04:45:35.918Z,90.96
2022-11-09T04:48:05.221Z,90.38
2022-11-09T04:50:32.824Z,90.56
2022-11-09T04:53:11.906Z,89.36
2022-11-09T04:55:39.741Z,89.07
2022-11-09T04:58:06.941Z,89.12
2022-11-09T05:00:34.861Z,88.50
2022-11-09T05:03:03.152Z,88.01
2022-11-09T05:05:30.523Z,86.85
2022-11-09T05:07:57.480Z,88.51
2022-11-09T05:10:24.483Z,88.91
2022-11-09T05:12:58.369Z,89.56
2022-11-09T05:15:25.430Z,88.65
2022-11-09T05:17:52.389Z,88.43
2022-11-09T05:20:19.798Z,88.48
2022-11-09T05:23:05.144Z,89.89
2022-11-09T05:25:32.063Z,90.23
2022-11-09T05:27:58.997Z,90.28
2022-11-09T05:30:26.344Z,89.83
2022-11-09T05:32:53.338Z,89.04
2022-11-09T05:35:20.225Z,90.29
2022-11-09T05:37:48.795Z,90.18
2022-11-09T05:40:17.285Z,89.82
2022-11-09T05:42:44.677Z,90.79
2022-11-09T05:48:05.328Z,90.81
2022-11-09T05:50:32.610Z,90.61
2022-11-09T05:53:00.651Z,91.02
2022-11-09T05:55:27.960Z,91.27
2022-11-09T05:57:55.634Z,91.20
2022-11-09T06:00:22.905Z,91.83
2022-11-09T06:02:50.467Z,91.40
2022-11-09T06:05:17.566Z,91.38
2022-11-09T06:07:44.490Z,91.03
2022-11-09T06:10:12.039Z,90.41
2022-11-09T06:12:41.023Z,89.70
2022-11-09T06:15:08.655Z,89.17
2022-11-09T06:17:35.534Z,89.83
2022-11-09T06:20:02.524Z,89.38
2022-11-09T06:22:29.432Z,89.25
2022-11-09T06:24:56.378Z,88.64
2022-11-09T06:27:23.358Z,88.65
2022-11-09T06:29:50.241Z,89.12
2022-11-09T06:32:17.167Z,89.15
2022-11-09T06:34:44.605Z,89.21
2022-11-09T06:37:11.506Z,89.03
2022-11-09T06:39:38.430Z,88.56
2022-11-09T06:42:05.431Z,88.70
2022-11-09T06:44:32.440Z,88.51
2022-11-09T06:46:59.340Z,88.21
2022-11-09T06:49:26.317Z,87.59
2022-11-09T06:51:53.240Z,87.43
2022-11-09T06:54:20.144Z,86.85
2022-11-09T06:56:47.019Z,87.46
2022-11-09T06:59:14.050Z,87.13
2022-11-09T07:01:41.039Z,86.85
2022-11-09T07:04:07.965Z,86.55
2022-11-09T07:06:34.997Z,86.25
2022-11-09T07:09:01.938Z,86.51
2022-11-09T07:11:28.890Z,86.18
2022-11-09T07:13:57.648Z,86.41
2022-11-09T07:16:25.066Z,86.79
2022-11-09T07:18:51.954Z,86.77
2022-11-09T07:21:19.141Z,86.82
2022-11-09T07:23:48.162Z,86.93
2022-11-09T07:26:16.123Z,86.80
2022-11-09T07:28:43.588Z,86.78
2022-11-09T07:31:10.831Z,86.87
2022-11-09T07:33:37.745Z,86.62
2022-11-09T07:36:06.218Z,86.48
2022-11-09T07:38:33.207Z,86.13
2022-11-09T07:41:01.627Z,86.34
2022-11-09T07:43:29.832Z,85.57
2022-11-09T07:45:56.816Z,85.99
2022-11-09T07:48:24.062Z,84.93
2022-11-09T07:50:50.999Z,84.95
2022-11-09T07:53:18.469Z,85.24
2022-11-09T07:55:45.649Z,84.76
2022-11-09T07:58:15.890Z,84.29
2022-11-09T08:00:43.663Z,83.78
2022-11-09T08:03:10.971Z,82.66
2022-11-09T08:05:38.781Z,82.04
2022-11-09T08:08:09.192Z,81.94
2022-11-09T08:10:37.341Z,81.13
2022-11-09T08:13:11.349Z,79.59
2022-11-09T08:15:39.116Z,79.46
2022-11-09T08:18:13.138Z,78.97
2022-11-09T08:20:40.249Z,77.60
2022-11-09T08:23:07.936Z,76.96
2022-11-09T08:25:36.192Z,76.49
2022-11-09T08:28:03.804Z,77.14
2022-11-09T08:30:31.216Z,76.43
2022-11-09T08:33:00.425Z,75.68
2022-11-09T08:35:28.218Z,77.04
2022-11-09T08:37:55.622Z,76.39
2022-11-09T08:40:25.506Z,75.79
2022-11-09T08:42:53.315Z,74.55
2022-11-09T08:45:21.201Z,73.83
2022-11-09T08:47:48.249Z,73.86
2022-11-09T08:50:16.310Z,73.14
2022-11-09T08:52:43.256Z,72.19
2022-11-09T08:55:10.250Z,72.27
2022-11-09T08:57:37.250Z,73.30
2022-11-09T09:00:05.866Z,72.75
2022-11-09T09:02:32.933Z,73.22
2022-11-09T09:05:00.011Z,72.03
2022-11-09T09:07:27.001Z,71.90
2022-11-09T09:09:54.529Z,73.31
2022-11-09T09:12:21.455Z,73.06
2022-11-09T09:14:48.421Z,71.97
2022-11-09T09:17:15.393Z,72.49
2022-11-09T09:19:47.305Z,72.26
2022-11-09T09:22:16.781Z,71.47
2022-11-09T09:24:43.699Z,71.45
2022-11-09T09:27:10.646Z,71.06
2022-11-09T09:29:37.527Z,71.39
2022-11-09T09:32:05.210Z,72.88
2022-11-09T09:34:32.394Z,71.61
2022-11-09T09:36:59.296Z,71.46
2022-11-09T09:39:26.247Z,71.87
2022-11-09T09:41:54.752Z,71.70
2022-11-09T09:44:40.953Z,70.48
2022-11-09T09:47:45.898Z,69.97
2022-11-09T09:50:21.952Z,70.50
2022-11-09T09:53:17.751Z,70.54
2022-11-09T09:55:45.851Z,70.44
2022-11-09T09:58:21.995Z,71.01
2022-11-09T10:00:55.264Z,70.08
2022-11-09T10:03:22.313Z,70.50
2022-11-09T10:06:16.804Z,70.37
2022-11-09T10:09:09.818Z,68.89
2022-11-09T10:11:59.886Z,69.75
2022-11-09T10:15:01.888Z,69.20
2022-11-09T10:17:55.815Z,68.97
2022-11-09T10:20:49.095Z,68.20
2022-11-09T10:23:21.756Z,68.60
2022-11-09T10:26:04.505Z,68.27
2022-11-09T10:28:54.318Z,67.81
2022-11-09T10:31:23.050Z,68.57
2022-11-09T10:33:56.287Z,67.04
2022-11-09T10:36:31.153Z,67.03
2022-11-09T10:39:01.597Z,67.09
2022-11-09T10:41:32.103Z,68.42
2022-11-09T10:44:00.106Z,67.71
2022-11-09T10:46:27.033Z,66.35
2022-11-09T10:48:55.927Z,66.96
2022-11-09T10:51:40.590Z,66.45
2022-11-09T10:54:28.295Z,65.09
2022-11-09T10:57:11.959Z,63.92
2022-11-09T10:59:58.441Z,64.23
2022-11-09T11:02:25.663Z,63.48
2022-11-09T11:05:15.601Z,64.14
2022-11-09T11:07:42.569Z,63.86
2022-11-09T11:10:18.339Z,63.06
2022-11-09T11:12:53.671Z,64.35
2022-11-09T11:15:26.683Z,62.54
2022-11-09T11:18:02.380Z,63.28
2022-11-09T11:20:31.237Z,63.33
2022-11-09T11:23:24.988Z,63.50
2022-11-09T11:25:57.824Z,61.74
2022-11-09T11:28:45.784Z,60.79
2022-11-09T11:31:16.165Z,60.90
2022-11-09T11:33:43.702Z,62.11
2022-11-09T11:36:29.095Z,61.16
2022-11-09T11:39:20.880Z,60.79
2022-11-09T11:42:10.396Z,59.89
2022-11-09T11:45:38.920Z,60.47
2022-11-09T11:48:04.681Z,58.49
2022-11-09T11:50:58.176Z,59.10
2022-11-09T11:53:25.111Z,59.95
2022-11-09T11:55:51.930Z,58.37
2022-11-09T12:02:47.077Z,58.07
2022-11-09T12:05:37.001Z,58.29
2022-11-09T12:08:27.481Z,58.19
2022-11-09T12:10:57.438Z,57.65
2022-11-09T12:14:20.291Z,57.41
2022-11-09T12:16:53.180Z,56.53
2022-11-09T12:19:35.301Z,57.02
2022-11-09T12:22:34.263Z,57.19
2022-11-09T12:25:19.604Z,56.24
2022-11-09T12:31:58.224Z,57.63
2022-11-09T12:34:38.714Z,57.90
2022-11-09T12:37:14.464Z,57.44
2022-11-09T12:39:49.109Z,57.29
2022-11-09T12:42:52.711Z,56.71
2022-11-09T12:45:32.983Z,57.17
2022-11-09T12:48:07.047Z,57.69
2022-11-09T12:50:34.742Z,56.35
2022-11-09T12:53:04.538Z,56.33
2022-11-09T12:55:51.296Z,57.34
2022-11-09T12:58:38.992Z,57.02
2022-11-09T13:01:11.141Z,56.86
2022-11-09T13:03:57.117Z,56.12
2022-11-09T13:06:26.494Z,55.92
2022-11-09T13:09:06.663Z,56.87
2022-11-09T13:11:36.349Z,57.03
2022-11-09T13:14:21.987Z,56.60
2022-11-09T13:16:50.383Z,56.74
2022-11-09T13:19:35.593Z,56.66
2022-11-09T13:25:44.503Z,56.33
2022-11-09T13:28:33.317Z,57.07
2022-11-09T13:31:00.742Z,57.04
2022-11-09T13:33:29.408Z,58.02
2022-11-09T13:36:07.131Z,58.83
2022-11-09T13:38:35.901Z,58.84
2022-11-09T13:41:05.091Z,58.61
2022-11-09T13:43:40.986Z,59.34
2022-11-09T13:46:29.848Z,58.88
2022-11-09T13:48:56.916Z,58.70
2022-11-09T13:51:37.356Z,59.21
2022-11-09T13:54:25.394Z,58.93
2022-11-09T13:56:53.459Z,59.32
2022-11-09T13:59:28.557Z,59.68
2022-11-09T14:01:58.140Z,59.87
2022-11-09T14:04:28.861Z,60.20
2022-11-09T14:07:03.975Z,61.34
2022-11-09T14:10:07.523Z,61.21
2022-11-09T14:13:16.809Z,61.95
2022-11-09T14:15:57.528Z,62.83
2022-11-09T14:18:53.506Z,62.93
2022-11-09T14:21:39.220Z,63.10
2022-11-09T14:24:26.163Z,63.17
2022-11-09T14:27:11.503Z,64.16
2022-11-09T14:29:51.961Z,64.84
2022-11-09T14:32:18.958Z,65.22
2022-11-09T14:34:45.823Z,64.83
2022-11-09T14:37:14.953Z,65.92
2022-11-09T14:39:41.951Z,65.46
2022-11-09T14:42:18.651Z,65.84
2022-11-09T14:44:46.860Z,66.92
2022-11-09T14:47:18.073Z,66.41
2022-11-09T14:49:46.292Z,67.01
2022-11-09T14:52:18.433Z,67.46
2022-11-09T14:54:46.644Z,68.01
2022-11-09T14:57:16.693Z,67.33
2022-11-09T14:59:45.616Z,68.23
2022-11-09T15:02:16.094Z,68.31
2022-11-09T15:04:55.024Z,68.51
2022-11-09T15:07:25.401Z,69.55
2022-11-09T15:09:57.795Z,69.07
2022-11-09T15:12:25.671Z,69.23
2022-11-09T15:15:03.491Z,70.31
2022-11-09T15:17:32.122Z,70.03
2022-11-09T15:20:21.356Z,69.73
2022-11-09T15:22:55.151Z,69.26
2022-11-09T15:25:30.177Z,69.97
2022-11-09T15:28:02.887Z,69.84
2022-11-09T15:31:07.115Z,70.99
2022-11-09T15:33:33.997Z,70.86
2022-11-09T15:36:05.248Z,71.80
2022-11-09T15:38:44.171Z,71.68
2022-11-09T15:41:13.877Z,72.27
2022-11-09T15:43:41.237Z,72.71
2022-11-09T15:46:08.416Z,72.45
2022-11-09T15:48:36.153Z,72.92
2022-11-09T15:51:03.201Z,73.29
2022-11-09T15:53:30.345Z,73.05
2022-11-09T15:55:57.254Z,74.01
2022-11-09T15:58:24.464Z,74.35
2022-11-09T16:00:51.702Z,73.82
2022-11-09T16:03:18.741Z,74.95
2022-11-09T16:05:46.096Z,74.33
2022-11-09T16:08:13.509Z,74.70
2022-11-09T16:10:42.055Z,74.55
2022-11-09T16:13:10.922Z,74.53
2022-11-09T16:15:38.233Z,74.82
2022-11-09T16:18:05.855Z,74.96
2022-11-09T16:20:32.751Z,75.90
2022-11-09T16:22:59.620Z,75.74
2022-11-09T16:25:27.324Z,75.94
2022-11-09T16:27:54.597Z,75.88
2022-11-09T16:30:21.911Z,76.82
2022-11-09T16:32:48.819Z,76.37
2022-11-09T16:35:26.786Z,76.72
2022-11-09T16:37:55.432Z,77.30
2022-11-09T16:40:23.027Z,77.56
2022-11-09T16:42:52.199Z,77.79
2022-11-09T16:45:19.959Z,77.63
2022-11-09T16:47:51.264Z,77.57
2022-11-09T16:50:18.710Z,78.00
2022-11-09T16:52:45.698Z,78.04
2022-11-09T16:55:12.672Z,78.14
2022-11-09T16:57:39.712Z,78.51
2022-11-09T17:00:08.421Z,78.74
2022-11-09T17:02:35.980Z,78.73
2022-11-09T17:05:03.134Z,78.56
2022-11-09T17:07:30.880Z,79.65
2022-11-09T17:09:58.051Z,79.73
2022-11-09T17:12:24.995Z,79.26
2022-11-09T17:14:51.934Z,79.35
2022-11-09T17:17:22.589Z,79.24
2022-11-09T17:19:50.300Z,79.59
2022-11-09T17:22:17.930Z,78.82
2022-11-09T17:24:46.125Z,79.49
2022-11-09T17:27:13.170Z,79.70
2022-11-09T17:29:40.667Z,79.94
2022-11-09T17:32:09.222Z,81.76
2022-11-09T17:34:36.615Z,81.80
2022-11-09T17:37:05.388Z,81.74
2022-11-09T17:39:34.049Z,82.31
2022-11-09T17:42:01.016Z,82.41
2022-11-09T17:44:27.956Z,82.11
2022-11-09T17:46:54.877Z,82.13
2022-11-09T17:49:22.248Z,81.56
2022-11-09T17:51:49.126Z,81.92
2022-11-09T17:54:16.249Z,81.10
2022-11-09T17:56:43.625Z,81.09
2022-11-09T17:59:11.518Z,81.96
2022-11-09T18:01:41.489Z,81.39
2022-11-09T18:04:10.980Z,82.62
2022-11-09T18:06:38.455Z,84.29
2022-11-09T18:11:52.558Z,84.28
2022-11-09T18:14:19.754Z,83.98
2022-11-09T18:16:46.885Z,84.99
2022-11-09T18:19:14.186Z,84.29
2022-11-09T18:21:41.722Z,84.46
2022-11-09T18:24:08.980Z,84.80
2022-11-09T18:26:36.148Z,84.46
2022-11-09T18:29:03.274Z,84.62
2022-11-09T18:31:30.505Z,84.10
2022-11-09T18:33:57.714Z,84.93
2022-11-09T18:36:25.162Z,85.45
2022-11-09T18:38:56.007Z,85.68
2022-11-09T18:41:25.204Z,85.16
2022-11-09T18:43:54.968Z,85.90
2022-11-09T18:46:22.852Z,86.93
2022-11-09T18:48:54.069Z,86.27
2022-11-09T18:51:21.655Z,86.40
2022-11-09T18:53:49.437Z,86.62
2022-11-09T18:56:24.712Z,86.79
2022-11-09T18:58:54.253Z,86.77
2022-11-09T19:01:24.865Z,86.87
2022-11-09T19:03:56.454Z,87.13
2022-11-09T19:06:25.137Z,86.79
2022-11-09T19:09:10.708Z,86.33
2022-11-09T19:11:37.740Z,87.48
2022-11-09T19:14:04.642Z,86.62
2022-11-09T19:16:31.687Z,86.88
2022-11-09T19:18:59.517Z,86.35
2022-11-09T19:21:29.574Z,86.45
2022-11-09T19:24:34.724Z,85.59
2022-11-09T19:27:01.819Z,85.83
2022-11-09T19:29:28.777Z,86.07
2022-11-09T19:31:55.827Z,85.76
2022-11-09T19:34:22.887Z,85.18
2022-11-09T19:36:49.888Z,84.90
2022-11-09T19:39:17.609Z,85.74
2022-11-09T19:41:45.060Z,85.88
2022-11-09T19:44:14.754Z,86.09
2022-11-09T19:46:41.988Z,86.17
2022-11-09T19:49:10.058Z,86.29
2022-11-09T19:51:38.566Z,87.04
2022-11-09T19:54:06.223Z,86.71
2022-11-09T19:56:33.669Z,87.35
2022-11-09T19:59:02.659Z,87.43
2022-11-09T20:01:31.047Z,87.64
2022-11-09T20:04:05.132Z,88.59
2022-11-09T20:06:37.440Z,88.49
2022-11-09T20:09:04.429Z,87.90
2022-11-09T20:11:49.671Z,88.25
2022-11-09T20:14:16.623Z,88.19
2022-11-09T20:16:44.873Z,88.67
2022-11-09T20:19:13.483Z,88.33
2022-11-09T20:21:41.270Z,88.59
2022-11-09T20:24:09.060Z,88.42
2022-11-09T20:26:36.543Z,87.94
2022-11-09T20:29:04.222Z,88.55
2022-11-09T20:31:31.515Z,88.68
2022-11-09T20:33:59.880Z,88.34
2022-11-09T20:36:27.810Z,88.34
2022-11-09T20:38:55.138Z,88.36
2022-11-09T20:41:25.403Z,87.90
2022-11-09T20:43:53.264Z,88.60
2022-11-09T20:46:22.649Z,88.05
2022-11-09T20:48:55.184Z,88.43
2022-11-09T20:51:24.197Z,88.27
2022-11-09T20:53:52.660Z,88.69
2022-11-09T20:56:21.780Z,88.94
2022-11-09T20:58:48.841Z,88.71
2022-11-09T21:01:19.286Z,88.28
2022-11-09T21:03:47.130Z,87.78
2022-11-09T21:06:15.082Z,87.94
2022-11-09T21:08:51.750Z,88.00
2022-11-09T21:11:19.725Z,87.57
2022-11-09T21:13:56.711Z,86.95
2022-11-09T21:16:25.155Z,86.30
2022-11-09T21:18:52.389Z,86.24
2022-11-09T21:21:21.847Z,85.81
2022-11-09T21:24:08.983Z,86.43
2022-11-09T21:26:54.679Z,85.67
2022-11-09T21:29:42.560Z,87.15
2022-11-09T21:32:11.335Z,86.74
2022-11-09T21:34:38.445Z,86.92
2022-11-09T21:37:06.109Z,87.99
2022-11-09T21:39:33.576Z,87.43
2022-11-09T21:42:01.303Z,87.40
2022-11-09T21:44:30.298Z,87.32
2022-11-09T21:46:58.284Z,87.30
2022-11-09T21:49:25.595Z,88.72
2022-11-09T21:51:52.895Z,89.33
2022-11-09T21:54:21.042Z,88.76
2022-11-09T21:56:49.261Z,88.44
2022-11-09T21:59:16.988Z,88.32
2022-11-09T22:01:45.064Z,88.00
2022-11-09T22:04:12.614Z,89.10
2022-11-09T22:06:41.620Z,88.85
2022-11-09T22:09:14.013Z,89.89
2022-11-09T22:11:59.663Z,90.03
2022-11-09T22:14:45.200Z,88.93
2022-11-09T22:17:12.779Z,88.43
2022-11-09T22:19:59.158Z,88.48
2022-11-09T22:22:29.372Z,88.56
2022-11-09T22:24:56.781Z,88.58
2022-11-09T22:27:23.952Z,88.47
2022-11-09T22:29:53.746Z,88.69
2022-11-09T22:32:21.916Z,88.93
2022-11-09T22:34:49.189Z,88.99
2022-11-09T22:37:16.400Z,88.94
2022-11-09T22:39:47.232Z,87.84
2022-11-09T22:42:15.153Z,87.89
2022-11-09T22:44:42.106Z,89.25
2022-11-09T22:47:08.999Z,89.09
2022-11-09T22:49:37.189Z,88.43
2022-11-09T22:52:05.152Z,88.57
2022-11-09T22:54:32.209Z,88.87
2022-11-09T22:56:59.162Z,89.88
2022-11-09T22:59:26.132Z,89.84
2022-11-09T23:01:53.125Z,90.40
2022-11-09T23:04:20.086Z,90.35
2022-11-09T23:06:47.081Z,89.47
2022-11-09T23:09:14.128Z,89.97
2022-11-09T23:11:41.504Z,89.52
2022-11-09T23:14:12.526Z,89.54
2022-11-09T23:16:39.487Z,88.94
2022-11-09T23:19:06.400Z,88.75
2022-11-09T23:21:36.090Z,88.12
2022-11-09T23:24:05.758Z,88.50
2022-11-09T23:26:36.650Z,87.69
2022-11-09T23:29:03.570Z,87.11
2022-11-09T23:31:30.489Z,87.09
2022-11-09T23:33:58.280Z,86.33
2022-11-09T23:36:26.621Z,86.19
2022-11-09T23:38:53.708Z,86.38
2022-11-09T23:41:20.982Z,86.21
2022-11-09T23:43:49.964Z,85.97
2022-11-09T23:46:18.156Z,85.82
2022-11-09T23:48:45.570Z,85.99
2022-11-09T23:51:13.121Z,85.66
2022-11-09T23:53:40.063Z,84.97
2022-11-09T23:56:12.008Z,84.76
2022-11-09T23:58:39.048Z,85.04
